Time;durP1;ratioP1;P1;durP2;ratioP2;P2;SDS_P1;SDS_P2;PMS_P1;PMS_P2;Temp;Humidity;BMP_temperature;BMP_pressure;BME280_temperature;BME280_humidity;BME280_pressure;Samples;Min_cycle;Max_cycle;Signal;HPM_P1;HPM_P2
2023/03/19 00:02:06;;;;;;;81.90;44.40;;;;;;;;;;5116424;22;20445;-59
2023/03/19 00:07:27;;;;;;;90.57;48.60;;;;;;;;;;5065666;22;20458;-59
2023/03/19 00:09:52;;;;;;;95.70;50.47;;;;;;;;;;5093684;28;20493;-60
2023/03/19 00:12:18;;;;;;;113.25;48.47;;;;;;;;;;5093702;28;20012;-60
2023/03/19 00:14:43;;;;;;;92.50;48.10;;;;;;;;;;5093429;28;20027;-60
2023/03/19 00:17:08;;;;;;;67.32;37.10;;;;;;;;;;5093928;28;20386;-60
2023/03/19 00:19:34;;;;;;;74.63;39.28;;;;;;;;;;5093657;28;20081;-60
2023/03/19 00:21:59;;;;;;;64.38;38.95;;;;;;;;;;5093340;28;20389;-60
2023/03/19 00:24:24;;;;;;;60.72;33.28;;;;;;;;;;5093594;28;20036;-60
2023/03/19 00:26:50;;;;;;;59.22;31.90;;;;;;;;;;5093834;28;20032;-60
2023/03/19 00:29:15;;;;;;;58.33;31.25;;;;;;;;;;5058378;28;20024;-59
2023/03/19 00:31:41;;;;;;;62.95;34.97;;;;;;;;;;5075100;28;20024;-60
2023/03/19 00:34:07;;;;;;;75.93;41.20;;;;;;;;;;5075137;28;20024;-60
2023/03/19 00:36:34;;;;;;;78.63;41.10;;;;;;;;;;5075104;28;20054;-60
2023/03/19 00:38:59;;;;;;;79.55;45.05;;;;;;;;;;5093187;28;20530;-59
2023/03/19 00:41:25;;;;;;;92.72;48.80;;;;;;;;;;5093326;28;20020;-60
2023/03/19 00:43:57;;;;;;;89.85;50.08;;;;;;;;;;5093153;28;20036;-60
2023/03/19 00:46:23;;;;;;;71.05;40.47;;;;;;;;;;5093962;28;20073;-60
2023/03/19 00:48:49;;;;;;;63.45;38.42;;;;;;;;;;5096969;28;20068;-59
2023/03/19 00:51:15;;;;;;;77.32;40.70;;;;;;;;;;5078582;28;20107;-60
2023/03/19 00:53:41;;;;;;;80.20;43.72;;;;;;;;;;5078566;28;20449;-60
2023/03/19 00:56:08;;;;;;;72.38;40.42;;;;;;;;;;5078585;28;20119;-60
2023/03/19 00:58:34;;;;;;;68.55;38.17;;;;;;;;;;5096878;28;20054;-60
2023/03/19 01:01:00;;;;;;;70.72;40.17;;;;;;;;;;5096830;28;20028;-60
2023/03/19 01:03:26;;;;;;;62.83;34.63;;;;;;;;;;5096486;28;20068;-60
2023/03/19 01:05:51;;;;;;;62.60;34.35;;;;;;;;;;5061604;28;20031;-60
2023/03/19 01:08:17;;;;;;;57.38;31.52;;;;;;;;;;5061357;28;20047;-60
2023/03/19 01:10:43;;;;;;;54.28;30.65;;;;;;;;;;5078272;28;20419;-60
2023/03/19 01:13:09;;;;;;;51.22;28.65;;;;;;;;;;5078180;28;20124;-60
2023/03/19 01:15:37;;;;;;;48.80;24.90;;;;;;;;;;5078233;28;20071;-60
2023/03/19 01:18:02;;;;;;;55.28;29.85;;;;;;;;;;5078162;28;20548;-60
2023/03/19 01:20:28;;;;;;;60.03;33.45;;;;;;;;;;5096180;28;20052;-60
2023/03/19 01:22:53;;;;;;;69.80;35.63;;;;;;;;;;5096213;28;20032;-59
2023/03/19 01:25:18;;;;;;;82.68;43.10;;;;;;;;;;5096379;28;20020;-59
2023/03/19 01:27:54;;;;;;;74.88;37.22;;;;;;;;;;5078198;28;20090;-59
2023/03/19 01:30:20;;;;;;;78.95;40.08;;;;;;;;;;5078068;28;20028;-59
2023/03/19 01:33:10;;;;;;;;;;;;;;;;;;5078527;28;20024;-59
2023/03/19 01:35:46;;;;;;;82.50;42.00;;;;;;;;;;5096195;28;20281;-60
2023/03/19 01:38:12;;;;;;;84.43;42.55;;;;;;;;;;5077750;28;20028;-59
2023/03/19 01:40:48;;;;;;;81.88;43.08;;;;;;;;;;5077889;28;20027;-59
2023/03/19 01:43:21;;;;;;;80.57;42.60;;;;;;;;;;5077657;28;20016;-60
2023/03/19 01:46:22;;;;;;;85.85;41.92;;;;;;;;;;5095716;28;20430;-60
2023/03/19 01:48:53;;;;;;;79.65;39.95;;;;;;;;;;5063401;28;20043;-60
2023/03/19 01:51:22;;;;;;;84.55;41.70;;;;;;;;;;5095871;28;20055;-60
2023/03/19 01:54:03;;;;;;;58.00;31.05;;;;;;;;;;5095540;28;20482;-60
2023/03/19 01:56:51;;;;;;;51.58;27.55;;;;;;;;;;5094998;28;20032;-60
2023/03/19 01:59:36;;;;;;;72.97;38.20;;;;;;;;;;5094987;28;20089;-60
2023/03/19 02:02:24;;;;;;;63.95;32.92;;;;;;;;;;5095668;28;20483;-59
2023/03/19 02:04:52;;;;;;;63.80;34.03;;;;;;;;;;5077614;28;20034;-60
2023/03/19 02:07:17;;;;;;;69.03;35.65;;;;;;;;;;5076952;28;20040;-59
2023/03/19 02:09:44;;;;;;;67.10;34.58;;;;;;;;;;5077219;28;20039;-60
2023/03/19 02:12:10;;;;;;;71.30;36.03;;;;;;;;;;5077266;28;20051;-60
2023/03/19 02:14:35;;;;;;;76.43;39.13;;;;;;;;;;5060423;28;20020;-60
2023/03/19 02:17:02;;;;;;;75.95;37.92;;;;;;;;;;5060344;28;20112;-60
2023/03/19 02:19:31;;;;;;;80.13;40.70;;;;;;;;;;5060298;28;20067;-60
2023/03/19 02:21:57;;;;;;;82.63;40.25;;;;;;;;;;5076834;28;20027;-59
2023/03/19 02:24:37;;;;;;;81.22;39.90;;;;;;;;;;5076759;28;20066;-60
2023/03/19 02:27:12;;;;;;;79.50;39.58;;;;;;;;;;5076990;28;20393;-60
2023/03/19 02:29:41;;;;;;;78.03;38.38;;;;;;;;;;5076888;28;20032;-60
2023/03/19 02:32:06;;;;;;;67.32;36.40;;;;;;;;;;5076665;28;20106;-60
2023/03/19 02:34:35;;;;;;;62.10;31.58;;;;;;;;;;5095044;28;20025;-60
2023/03/19 02:37:04;;;;;;;55.40;28.25;;;;;;;;;;5076556;28;20115;-60
2023/03/19 02:39:29;;;;;;;46.92;25.48;;;;;;;;;;5076524;28;20127;-59
2023/03/19 02:41:56;;;;;;;55.17;28.08;;;;;;;;;;5076472;28;20122;-60
2023/03/19 02:44:23;;;;;;;58.97;30.90;;;;;;;;;;5076692;28;20126;-60
2023/03/19 02:46:49;;;;;;;52.78;28.55;;;;;;;;;;5076315;28;20469;-60
2023/03/19 02:49:14;;;;;;;57.67;30.42;;;;;;;;;;5094428;28;20027;-60
2023/03/19 02:51:40;;;;;;;61.40;32.17;;;;;;;;;;5094448;28;20074;-60
2023/03/19 02:54:06;;;;;;;61.67;31.90;;;;;;;;;;5076192;28;20017;-59
2023/03/19 02:56:31;;;;;;;63.58;32.58;;;;;;;;;;5094382;28;20137;-60
2023/03/19 02:58:57;;;;;;;64.90;33.55;;;;;;;;;;5094327;28;20035;-60
2023/03/19 03:01:23;;;;;;;61.40;31.25;;;;;;;;;;5076219;28;20385;-60
2023/03/19 03:03:49;;;;;;;61.05;30.67;;;;;;;;;;5076135;28;20548;-60
2023/03/19 03:06:16;;;;;;;62.03;31.05;;;;;;;;;;5094507;28;20097;-60
2023/03/19 03:08:42;;;;;;;67.72;31.38;;;;;;;;;;5075860;28;20040;-60
2023/03/19 03:11:08;;;;;;;64.47;29.98;;;;;;;;;;5094104;28;20035;-60
2023/03/19 03:13:33;;;;;;;57.88;29.00;;;;;;;;;;5094382;28;20024;-60
2023/03/19 03:16:00;;;;;;;57.58;28.40;;;;;;;;;;5094363;28;20051;-60
2023/03/19 03:18:27;;;;;;;56.83;29.38;;;;;;;;;;5059341;28;20024;-60
2023/03/19 03:20:52;;;;;;;51.20;27.08;;;;;;;;;;5093980;28;20381;-60
2023/03/19 03:23:18;;;;;;;51.33;27.52;;;;;;;;;;5094220;28;20025;-60
2023/03/19 03:25:43;;;;;;;51.63;26.20;;;;;;;;;;5094249;28;20039;-60
2023/03/19 03:28:09;;;;;;;55.78;28.05;;;;;;;;;;5093903;28;20139;-60
2023/03/19 03:30:35;;;;;;;53.72;27.00;;;;;;;;;;5075741;28;20035;-60
2023/03/19 03:33:01;;;;;;;47.60;24.35;;;;;;;;;;5075750;28;20047;-60
2023/03/19 03:35:26;;;;;;;36.78;20.83;;;;;;;;;;5075854;28;20386;-60
2023/03/19 03:37:52;;;;;;;41.85;21.63;;;;;;;;;;5093806;28;20032;-60
2023/03/19 03:40:17;;;;;;;51.75;26.55;;;;;;;;;;5075725;28;20024;-60
2023/03/19 03:42:43;;;;;;;49.83;26.58;;;;;;;;;;5075672;28;20101;-60
2023/03/19 03:45:09;;;;;;;51.65;27.15;;;;;;;;;;5093987;28;20038;-60
2023/03/19 03:47:36;;;;;;;53.40;27.48;;;;;;;;;;5076177;28;20020;-59
2023/03/19 03:50:03;;;;;;;51.03;25.50;;;;;;;;;;5093874;28;20384;-60
2023/03/19 03:52:32;;;;;;;40.70;21.38;;;;;;;;;;5075799;28;20020;-60
2023/03/19 03:54:59;;;;;;;41.78;23.20;;;;;;;;;;5075810;28;20024;-60
2023/03/19 03:57:25;;;;;;;50.17;25.00;;;;;;;;;;5076361;28;20023;-60
2023/03/19 03:59:51;;;;;;;50.90;25.00;;;;;;;;;;5075482;28;20099;-60
2023/03/19 04:02:16;;;;;;;50.60;25.52;;;;;;;;;;5058757;28;20465;-60
2023/03/19 04:04:42;;;;;;;49.25;26.25;;;;;;;;;;5075457;28;20039;-59
2023/03/19 04:07:07;;;;;;;50.53;24.98;;;;;;;;;;5075271;28;20039;-60
2023/03/19 04:09:42;;;;;;;54.30;28.70;;;;;;;;;;5093709;28;20056;-60
2023/03/19 04:12:08;;;;;;;51.33;27.33;;;;;;;;;;5075351;28;20449;-60
2023/03/19 04:14:33;;;;;;;51.67;28.60;;;;;;;;;;5075400;28;20386;-60
2023/03/19 04:16:59;;;;;;;58.42;28.98;;;;;;;;;;5075360;28;20089;-60
2023/03/19 04:19:24;;;;;;;51.38;26.08;;;;;;;;;;5075332;28;20032;-60
2023/03/19 04:21:49;;;;;;;46.08;25.05;;;;;;;;;;5076569;28;20024;-60
2023/03/19 04:24:15;;;;;;;46.38;25.15;;;;;;;;;;5079185;28;20123;-60
2023/03/19 04:26:41;;;;;;;43.40;23.73;;;;;;;;;;5079069;28;20024;-60
2023/03/19 04:29:09;;;;;;;44.28;24.08;;;;;;;;;;5062311;28;20028;-60
2023/03/19 04:31:35;;;;;;;47.80;25.38;;;;;;;;;;5079314;28;20035;-60
2023/03/19 04:34:00;;;;;;;54.45;26.98;;;;;;;;;;5078946;28;20025;-60
2023/03/19 04:36:25;;;;;;;44.72;25.38;;;;;;;;;;5078912;28;20051;-60
2023/03/19 04:38:51;;;;;;;44.13;25.15;;;;;;;;;;5097594;28;20493;-60
2023/03/19 04:41:17;;;;;;;45.80;25.98;;;;;;;;;;5079104;28;20016;-60
2023/03/19 04:43:56;;;;;;;45.50;24.23;;;;;;;;;;5063950;28;20123;-60
2023/03/19 04:46:21;;;;;;;49.33;29.60;;;;;;;;;;5079034;28;20052;-59
2023/03/19 04:48:47;;;;;;;44.33;25.10;;;;;;;;;;5078604;28;20424;-59
2023/03/19 04:51:12;;;;;;;38.25;21.65;;;;;;;;;;5078670;28;20111;-60
2023/03/19 04:53:38;;;;;;;37.55;20.58;;;;;;;;;;5078908;28;20411;-59
2023/03/19 04:56:05;;;;;;;35.17;19.70;;;;;;;;;;5096752;28;20466;-59
2023/03/19 04:58:31;;;;;;;40.75;21.30;;;;;;;;;;5096946;28;20035;-59
2023/03/19 05:01:00;;;;;;;39.63;21.15;;;;;;;;;;5078758;28;20031;-60
2023/03/19 05:03:46;;;;;;;43.15;21.88;;;;;;;;;;5096364;28;20055;-65
2023/03/19 05:06:11;;;;;;;41.95;22.52;;;;;;;;;;5078521;28;20465;-65
2023/03/19 05:08:36;;;;;;;37.30;21.73;;;;;;;;;;5096281;28;20071;-65
2023/03/19 05:11:02;;;;;;;42.47;22.42;;;;;;;;;;5078278;28;20024;-60
2023/03/19 05:13:38;;;;;;;40.92;22.50;;;;;;;;;;5079953;28;20031;-60
2023/03/19 05:16:04;;;;;;;43.25;23.38;;;;;;;;;;5078206;28;20032;-59
2023/03/19 05:18:30;;;;;;;44.83;23.75;;;;;;;;;;5078311;28;20024;-60
2023/03/19 05:20:55;;;;;;;45.05;24.58;;;;;;;;;;5096756;28;20024;-60
2023/03/19 05:23:23;;;;;;;40.78;22.90;;;;;;;;;;5078842;28;20080;-60
2023/03/19 05:26:05;;;;;;;41.13;22.40;;;;;;;;;;5078000;28;20039;-59
2023/03/19 05:28:49;;;;;;;40.13;22.10;;;;;;;;;;5096326;28;20035;-60
2023/03/19 05:31:18;;;;;;;36.67;21.23;;;;;;;;;;5078166;28;20111;-60
2023/03/19 05:33:48;;;;;;;38.10;20.58;;;;;;;;;;5077666;28;20024;-60
2023/03/19 05:36:14;;;;;;;40.15;21.08;;;;;;;;;;5078361;28;20054;-60
2023/03/19 05:39:08;;;;;;;76.35;54.85;;;;;;;;;;5078163;28;20488;-60
2023/03/19 05:41:36;;;;;;;44.25;26.20;;;;;;;;;;5077667;28;20027;-59
2023/03/19 05:44:05;;;;;;;41.28;22.58;;;;;;;;;;5077671;28;20174;-60
2023/03/19 05:46:51;;;;;;;40.33;21.88;;;;;;;;;;5077895;28;20161;-60
2023/03/19 05:49:18;;;;;;;43.22;21.85;;;;;;;;;;5077804;28;20036;-60
2023/03/19 05:51:44;;;;;;;42.13;21.42;;;;;;;;;;5077493;28;20114;-60
2023/03/19 05:54:09;;;;;;;37.95;21.30;;;;;;;;;;5077396;28;20032;-60
2023/03/19 05:56:43;;;;;;;40.13;20.75;;;;;;;;;;5095817;28;20031;-60
2023/03/19 05:59:34;;;;;;;36.45;19.60;;;;;;;;;;5077382;28;20389;-60
2023/03/19 06:02:18;;;;;;;38.22;20.52;;;;;;;;;;5095998;28;20100;-60
2023/03/19 06:04:44;;;;;;;40.35;20.67;;;;;;;;;;5077480;28;20123;-60
2023/03/19 06:07:10;;;;;;;35.72;19.45;;;;;;;;;;5077280;28;20055;-59
2023/03/19 06:09:36;;;;;;;31.67;17.80;;;;;;;;;;5060356;28;20145;-59
2023/03/19 06:12:01;;;;;;;31.80;17.77;;;;;;;;;;5077934;28;20031;-60
2023/03/19 06:15:01;;;;;;;36.22;20.23;;;;;;;;;;5077339;28;20071;-59
2023/03/19 06:17:45;;;;;;;35.95;20.13;;;;;;;;;;5080619;28;20374;-59
2023/03/19 06:20:13;;;;;;;37.95;22.60;;;;;;;;;;5077225;28;20492;-60
2023/03/19 06:22:40;;;;;;;32.60;19.65;;;;;;;;;;5076866;28;20055;-60
2023/03/19 06:25:06;;;;;;;30.20;19.10;;;;;;;;;;5077405;28;20028;-60
2023/03/19 06:27:34;;;;;;;33.55;20.83;;;;;;;;;;5060804;28;20486;-59
2023/03/19 06:30:13;;;;;;;32.67;20.38;;;;;;;;;;5076944;28;20035;-60
2023/03/19 06:32:39;;;;;;;27.60;18.52;;;;;;;;;;5076644;28;20021;-60
2023/03/19 06:35:09;;;;;;;30.55;16.98;;;;;;;;;;5076928;28;20525;-60
2023/03/19 06:37:35;;;;;;;28.70;17.40;;;;;;;;;;5076582;28;20020;-60
2023/03/19 06:40:01;;;;;;;28.67;17.63;;;;;;;;;;5076599;28;20062;-60
2023/03/19 06:42:26;;;;;;;26.95;17.52;;;;;;;;;;5094936;28;20486;-60
2023/03/19 06:44:52;;;;;;;31.50;20.50;;;;;;;;;;5075919;28;20020;-60
2023/03/19 06:47:18;;;;;;;29.50;19.02;;;;;;;;;;5094858;28;20094;-60
2023/03/19 06:49:44;;;;;;;24.00;15.52;;;;;;;;;;5094483;28;20381;-60
2023/03/19 06:52:10;;;;;;;23.58;13.60;;;;;;;;;;5094799;28;20032;-60
2023/03/19 06:54:35;;;;;;;20.90;13.38;;;;;;;;;;5094435;28;20020;-60
2023/03/19 06:57:00;;;;;;;20.42;12.88;;;;;;;;;;5094677;28;20063;-60
2023/03/19 06:59:25;;;;;;;17.33;11.23;;;;;;;;;;5094954;28;20028;-60
2023/03/19 07:01:51;;;;;;;18.67;11.70;;;;;;;;;;5094852;28;20476;-60
2023/03/19 07:04:16;;;;;;;17.20;10.88;;;;;;;;;;5094285;28;20165;-60
2023/03/19 07:06:42;;;;;;;24.95;15.82;;;;;;;;;;5094374;28;20075;-60
2023/03/19 07:09:07;;;;;;;16.30;10.88;;;;;;;;;;5094390;28;20422;-60
2023/03/19 07:11:32;;;;;;;15.75;10.50;;;;;;;;;;5094162;28;20620;-60
2023/03/19 07:13:58;;;;;;;16.45;10.15;;;;;;;;;;5076157;28;20020;-60
2023/03/19 07:16:23;;;;;;;13.73;8.35;;;;;;;;;;5094365;28;20020;-59
2023/03/19 07:18:48;;;;;;;13.15;7.90;;;;;;;;;;5094345;28;20078;-60
2023/03/19 07:21:14;;;;;;;13.45;7.18;;;;;;;;;;5094024;28;20054;-60
2023/03/19 07:23:40;;;;;;;9.52;7.25;;;;;;;;;;5076184;28;20032;-60
2023/03/19 07:26:05;;;;;;;6.18;5.45;;;;;;;;;;5093983;28;20028;-60
2023/03/19 07:28:30;;;;;;;7.53;5.50;;;;;;;;;;5094357;28;20035;-60
2023/03/19 07:30:56;;;;;;;7.90;5.43;;;;;;;;;;5075732;28;20039;-60
2023/03/19 07:33:21;;;;;;;8.43;5.78;;;;;;;;;;5093818;28;20027;-60
2023/03/19 07:35:47;;;;;;;8.40;5.80;;;;;;;;;;5093806;28;20067;-60
2023/03/19 07:38:13;;;;;;;8.10;6.10;;;;;;;;;;5094056;28;20069;-60
2023/03/19 07:40:38;;;;;;;9.25;6.78;;;;;;;;;;5093761;28;20039;-59
2023/03/19 07:43:04;;;;;;;8.88;6.07;;;;;;;;;;5058951;28;20032;-59
2023/03/19 07:45:29;;;;;;;10.50;6.30;;;;;;;;;;5075635;28;20031;-59
2023/03/19 07:47:54;;;;;;;10.00;6.90;;;;;;;;;;5093985;28;20109;-59
2023/03/19 07:50:20;;;;;;;11.15;6.90;;;;;;;;;;5093865;28;20024;-59
2023/03/19 07:52:46;;;;;;;12.55;7.90;;;;;;;;;;5075673;28;20039;-60
2023/03/19 07:55:12;;;;;;;12.52;7.78;;;;;;;;;;5093903;28;20115;-59
2023/03/19 07:57:37;;;;;;;13.85;8.02;;;;;;;;;;5096650;28;20063;-60
2023/03/19 08:00:03;;;;;;;12.68;7.80;;;;;;;;;;5098095;28;20048;-59
2023/03/19 08:02:38;;;;;;;14.63;7.93;;;;;;;;;;5098032;28;20529;-60
2023/03/19 08:05:03;;;;;;;13.93;7.88;;;;;;;;;;5097670;28;20114;-60
2023/03/19 08:07:29;;;;;;;13.00;7.72;;;;;;;;;;5097455;28;20160;-59
2023/03/19 08:09:56;;;;;;;8.68;6.80;;;;;;;;;;5079362;28;20039;-59
2023/03/19 08:12:21;;;;;;;9.10;6.63;;;;;;;;;;5097834;28;20449;-60
2023/03/19 08:14:46;;;;;;;9.20;6.63;;;;;;;;;;5097497;28;20107;-60
2023/03/19 08:17:12;;;;;;;9.68;6.57;;;;;;;;;;5097502;28;20032;-60
2023/03/19 08:19:37;;;;;;;9.57;6.20;;;;;;;;;;5079216;28;20036;-60
2023/03/19 08:22:02;;;;;;;9.07;6.53;;;;;;;;;;5097355;28;20028;-60
2023/03/19 08:24:28;;;;;;;9.48;6.40;;;;;;;;;;5079155;28;20385;-60
2023/03/19 08:26:53;;;;;;;9.48;6.13;;;;;;;;;;5097571;28;20039;-60
2023/03/19 08:29:18;;;;;;;8.30;5.45;;;;;;;;;;5097426;28;20020;-60
2023/03/19 08:31:44;;;;;;;5.97;5.38;;;;;;;;;;5097193;28;20039;-60
2023/03/19 08:34:09;;;;;;;5.65;4.90;;;;;;;;;;5078869;28;20023;-60
2023/03/19 08:36:35;;;;;;;4.90;3.75;;;;;;;;;;5097143;28;20039;-60
2023/03/19 08:39:00;;;;;;;5.10;3.88;;;;;;;;;;5097035;28;20027;-60
2023/03/19 08:41:26;;;;;;;4.63;3.80;;;;;;;;;;5096994;28;20032;-60
2023/03/19 08:43:52;;;;;;;3.88;3.50;;;;;;;;;;5079202;28;20020;-60
2023/03/19 08:46:17;;;;;;;3.78;3.47;;;;;;;;;;5096925;28;20032;-60
2023/03/19 08:48:42;;;;;;;4.53;3.50;;;;;;;;;;5097051;28;20040;-60
2023/03/19 08:51:08;;;;;;;3.80;3.38;;;;;;;;;;5097061;28;20103;-60
2023/03/19 08:53:34;;;;;;;3.50;3.20;;;;;;;;;;5096804;28;20097;-59
2023/03/19 08:56:00;;;;;;;3.50;3.20;;;;;;;;;;5097004;28;20462;-60
2023/03/19 08:58:25;;;;;;;4.22;3.42;;;;;;;;;;5096956;28;20023;-60
2023/03/19 09:00:52;;;;;;;6.18;3.90;;;;;;;;;;5096642;28;20020;-60
2023/03/19 09:03:17;;;;;;;3.50;3.20;;;;;;;;;;5078461;28;20040;-59
2023/03/19 09:05:43;;;;;;;3.35;3.05;;;;;;;;;;5096554;28;20492;-60
2023/03/19 09:08:09;;;;;;;4.38;3.22;;;;;;;;;;5095802;28;20044;-60
2023/03/19 09:10:34;;;;;;;4.72;3.60;;;;;;;;;;5096677;28;20043;-60
2023/03/19 09:13:00;;;;;;;3.75;3.20;;;;;;;;;;5096364;28;20032;-60
2023/03/19 09:15:25;;;;;;;3.67;3.38;;;;;;;;;;5096655;28;20024;-60
2023/03/19 09:17:51;;;;;;;3.88;3.20;;;;;;;;;;5096311;28;20023;-60
2023/03/19 09:20:16;;;;;;;3.40;3.20;;;;;;;;;;5096526;28;20458;-60
2023/03/19 09:22:42;;;;;;;3.70;3.40;;;;;;;;;;5096527;28;20036;-60
2023/03/19 09:25:08;;;;;;;3.65;3.35;;;;;;;;;;5096432;28;20039;-59
2023/03/19 09:27:33;;;;;;;4.63;3.78;;;;;;;;;;5096687;28;20523;-60
2023/03/19 09:29:58;;;;;;;4.20;3.80;;;;;;;;;;5096017;28;20559;-60
2023/03/19 09:32:24;;;;;;;3.20;2.90;;;;;;;;;;5096061;28;20024;-59
2023/03/19 09:34:49;;;;;;;3.47;3.17;;;;;;;;;;5078488;28;20515;-60
2023/03/19 09:37:14;;;;;;;3.70;3.40;;;;;;;;;;5077837;28;20378;-60
2023/03/19 09:39:40;;;;;;;4.53;3.10;;;;;;;;;;5095905;28;20027;-60
2023/03/19 09:42:14;;;;;;;5.20;3.60;;;;;;;;;;5096133;28;20043;-60
2023/03/19 09:44:42;;;;;;;4.97;3.45;;;;;;;;;;5096079;28;20036;-59
2023/03/19 09:47:08;;;;;;;3.10;2.88;;;;;;;;;;5095715;28;20070;-60
2023/03/19 09:49:45;;;;;;;4.03;3.30;;;;;;;;;;5077923;28;20036;-60
2023/03/19 09:52:29;;;;;;;3.10;2.80;;;;;;;;;;5077471;28;20420;-60
2023/03/19 09:54:55;;;;;;;5.45;3.47;;;;;;;;;;5095886;28;20040;-60
2023/03/19 09:57:21;;;;;;;4.18;3.30;;;;;;;;;;5095500;28;20056;-60
2023/03/19 09:59:47;;;;;;;5.03;3.55;;;;;;;;;;5095789;28;20070;-59
2023/03/19 10:02:21;;;;;;;3.40;3.10;;;;;;;;;;5095754;28;20123;-60
2023/03/19 10:05:10;;;;;;;2.97;2.78;;;;;;;;;;5077850;28;20024;-60
2023/03/19 10:07:47;;;;;;;3.53;3.22;;;;;;;;;;5084561;28;20497;-60
2023/03/19 10:10:27;;;;;;;3.92;3.13;;;;;;;;;;5117386;22;20056;-59
2023/03/19 10:13:26;;;;;;;3.78;3.35;;;;;;;;;;5046907;22;1083019;-60
2023/03/19 10:15:52;;;;;;;5.10;3.58;;;;;;;;;;5033499;28;20065;-59
2023/03/19 10:18:20;;;;;;;3.38;3.08;;;;;;;;;;5034888;28;20033;-60
2023/03/19 10:21:09;;;;;;;2.95;2.70;;;;;;;;;;5034173;28;20100;-60
2023/03/19 10:23:37;;;;;;;3.60;3.38;;;;;;;;;;5035443;28;20033;-60
2023/03/19 10:26:04;;;;;;;3.72;3.40;;;;;;;;;;5035384;28;20033;-60
2023/03/19 10:28:29;;;;;;;3.35;3.15;;;;;;;;;;5034814;28;20025;-59
2023/03/19 10:31:01;;;;;;;3.00;2.80;;;;;;;;;;5016956;28;20044;-60
2023/03/19 10:33:33;;;;;;;4.22;3.00;;;;;;;;;;5035248;28;20056;-60
2023/03/19 10:36:08;;;;;;;2.75;2.53;;;;;;;;;;5034695;28;20052;-60
2023/03/19 10:38:38;;;;;;;4.35;3.33;;;;;;;;;;5034871;28;20523;-60
2023/03/19 10:41:10;;;;;;;3.53;3.22;;;;;;;;;;5034580;28;20075;-60
2023/03/19 10:43:35;;;;;;;3.80;3.35;;;;;;;;;;5016950;28;20036;-60
2023/03/19 10:46:01;;;;;;;4.72;3.63;;;;;;;;;;5034798;28;20021;-60
2023/03/19 10:48:26;;;;;;;2.58;2.38;;;;;;;;;;5033237;28;20029;-59
2023/03/19 10:50:55;;;;;;;3.38;3.08;;;;;;;;;;5033735;28;20104;-60
2023/03/19 10:53:27;;;;;;;2.83;2.63;;;;;;;;;;5034654;28;20164;-59
2023/03/19 10:55:52;;;;;;;4.07;3.13;;;;;;;;;;5017253;28;20037;-60
2023/03/19 10:58:19;;;;;;;4.13;3.05;;;;;;;;;;5016554;28;20028;-60
2023/03/19 11:00:45;;;;;;;3.08;2.88;;;;;;;;;;5034463;28;20033;-60
2023/03/19 11:03:29;;;;;;;3.60;3.30;;;;;;;;;;5016542;28;20037;-60
2023/03/19 11:06:06;;;;;;;3.60;3.30;;;;;;;;;;5034418;28;20032;-60
2023/03/19 11:08:38;;;;;;;3.42;3.10;;;;;;;;;;5034402;28;20104;-59
2023/03/19 11:11:03;;;;;;;3.50;3.20;;;;;;;;;;5034351;28;20033;-60
2023/03/19 11:13:29;;;;;;;2.97;2.72;;;;;;;;;;5032622;28;20120;-59
2023/03/19 11:15:56;;;;;;;3.40;2.90;;;;;;;;;;5034250;28;20033;-60
2023/03/19 11:18:36;;;;;;;3.25;3.05;;;;;;;;;;5034004;28;20044;-60
2023/03/19 11:21:06;;;;;;;3.13;2.83;;;;;;;;;;5034172;28;20033;-60
2023/03/19 11:23:38;;;;;;;2.63;2.42;;;;;;;;;;5016232;28;20041;-60
2023/03/19 11:26:03;;;;;;;3.22;2.92;;;;;;;;;;5034098;28;20029;-60
2023/03/19 11:28:32;;;;;;;3.10;2.83;;;;;;;;;;5034101;28;20044;-60
2023/03/19 11:31:03;;;;;;;3.90;3.60;;;;;;;;;;5032369;28;20396;-60
2023/03/19 11:33:28;;;;;;;;;;;;;;;;;;5016423;28;20025;-60
2023/03/19 11:36:00;;;;;;;3.33;2.65;;;;;;;;;;5034270;28;19909;-60
2023/03/19 11:38:43;;;;;;;2.78;2.53;;;;;;;;;;5033939;28;20049;-60
2023/03/19 11:41:17;;;;;;;3.17;2.88;;;;;;;;;;5033934;28;20032;-60
2023/03/19 11:43:45;;;;;;;3.33;2.97;;;;;;;;;;5033627;28;20372;-60
2023/03/19 11:46:11;;;;;;;2.72;2.53;;;;;;;;;;5032354;28;20506;-60
2023/03/19 11:48:40;;;;;;;3.45;3.15;;;;;;;;;;5033805;28;20083;-60
2023/03/19 11:51:13;;;;;;;2.83;2.55;;;;;;;;;;5034100;28;20025;-60
2023/03/19 11:53:55;;;;;;;3.22;2.92;;;;;;;;;;5033840;28;20026;-61
2023/03/19 11:56:21;;;;;;;4.20;3.03;;;;;;;;;;5033515;28;20522;-60
2023/03/19 11:59:08;;;;;;;3.22;3.03;;;;;;;;;;5033498;28;20110;-60
2023/03/19 12:01:52;;;;;;;7.00;3.33;;;;;;;;;;5032229;28;20104;-60
2023/03/19 12:04:17;;;;;;;2.85;2.65;;;;;;;;;;5033971;28;20036;-60
2023/03/19 12:07:03;;;;;;;3.28;3.08;;;;;;;;;;5033712;28;20025;-60
2023/03/19 12:09:31;;;;;;;3.30;3.00;;;;;;;;;;5032840;28;20144;-60
2023/03/19 12:12:04;;;;;;;3.38;2.95;;;;;;;;;;5033635;28;20032;-60
2023/03/19 12:14:53;;;;;;;3.55;3.25;;;;;;;;;;5015619;28;20050;-60
2023/03/19 12:17:18;;;;;;;3.05;2.85;;;;;;;;;;5025219;28;20038;-60
2023/03/19 12:19:55;;;;;;;3.42;3.13;;;;;;;;;;5033617;28;20033;-60
2023/03/19 12:22:24;;;;;;;2.72;2.53;;;;;;;;;;5033568;28;20036;-60
2023/03/19 12:24:56;;;;;;;3.40;2.97;;;;;;;;;;5033295;28;20033;-60
2023/03/19 12:27:34;;;;;;;2.72;2.50;;;;;;;;;;5016359;28;20353;-60
2023/03/19 12:29:59;;;;;;;2.78;2.58;;;;;;;;;;5033420;28;20030;-60
2023/03/19 12:32:36;;;;;;;4.03;2.75;;;;;;;;;;5033168;28;20091;-60
2023/03/19 12:35:05;;;;;;;25.92;4.53;;;;;;;;;;5033465;28;20367;-60
2023/03/19 12:37:34;;;;;;;5.20;4.00;;;;;;;;;;5015469;28;20036;-60
2023/03/19 12:40:09;;;;;;;4.47;3.97;;;;;;;;;;5015368;28;20033;-60
2023/03/19 12:42:37;;;;;;;8.20;5.13;;;;;;;;;;5033975;28;20120;-60
2023/03/19 12:45:05;;;;;;;6.60;4.20;;;;;;;;;;5037048;28;20041;-60
2023/03/19 12:47:33;;;;;;;4.57;3.53;;;;;;;;;;5036758;28;20109;-59
2023/03/19 12:50:00;;;;;;;4.95;3.45;;;;;;;;;;5036886;28;20175;-60
2023/03/19 12:52:30;;;;;;;3.88;3.45;;;;;;;;;;5035416;28;20025;-60
2023/03/19 12:54:55;;;;;;;3.72;3.42;;;;;;;;;;5036592;28;20073;-59
2023/03/19 12:57:26;;;;;;;3.40;3.17;;;;;;;;;;5019161;28;20487;-59
2023/03/19 12:59:57;;;;;;;4.40;3.45;;;;;;;;;;5036640;28;20115;-60
2023/03/19 13:02:46;;;;;;;3.58;3.00;;;;;;;;;;5036449;28;20033;-60
2023/03/19 13:05:25;;;;;;;3.90;3.47;;;;;;;;;;5028070;28;20052;-60
2023/03/19 13:07:57;;;;;;;3.90;3.20;;;;;;;;;;5036651;28;20537;-59
2023/03/19 13:10:23;;;;;;;7.25;4.10;;;;;;;;;;5036215;28;20048;-60
2023/03/19 13:12:49;;;;;;;3.58;3.28;;;;;;;;;;5018921;28;20025;-60
2023/03/19 13:15:33;;;;;;;3.78;3.38;;;;;;;;;;5034745;28;20372;-60
2023/03/19 13:18:11;;;;;;;3.95;3.60;;;;;;;;;;5036719;28;20373;-60
2023/03/19 13:20:39;;;;;;;4.78;3.90;;;;;;;;;;5018659;28;20034;-60
2023/03/19 13:23:06;;;;;;;3.25;2.95;;;;;;;;;;5018333;28;20095;-60
2023/03/19 13:25:40;;;;;;;4.15;3.17;;;;;;;;;;5036290;28;20037;-60
2023/03/19 13:28:08;;;;;;;3.85;3.00;;;;;;;;;;5036227;28;20541;-60
2023/03/19 13:30:34;;;;;;;3.90;3.53;;;;;;;;;;5035881;28;20116;-60
2023/03/19 13:33:03;;;;;;;5.38;3.83;;;;;;;;;;5034643;28;20049;-60
2023/03/19 13:35:45;;;;;;;6.45;3.72;;;;;;;;;;5035907;28;20026;-60
2023/03/19 13:38:16;;;;;;;4.30;3.40;;;;;;;;;;5035779;28;20033;-60
2023/03/19 13:40:44;;;;;;;3.67;3.13;;;;;;;;;;5018682;28;20033;-60
2023/03/19 13:43:27;;;;;;;4.18;3.35;;;;;;;;;;5035714;28;20033;-60
2023/03/19 13:46:01;;;;;;;4.50;3.95;;;;;;;;;;5018529;28;20041;-60
2023/03/19 13:48:27;;;;;;;4.45;3.50;;;;;;;;;;5035564;28;20095;-60
2023/03/19 13:51:00;;;;;;;5.93;4.07;;;;;;;;;;5035474;28;20033;-60
2023/03/19 13:53:34;;;;;;;5.15;4.30;;;;;;;;;;5035394;28;20036;-60
2023/03/19 13:56:09;;;;;;;3.55;3.10;;;;;;;;;;5036006;28;20021;-60
2023/03/19 13:58:53;;;;;;;4.95;4.00;;;;;;;;;;5017791;28;20040;-60
2023/03/19 14:01:24;;;;;;;4.40;4.00;;;;;;;;;;5018247;28;20034;-60
2023/03/19 14:03:57;;;;;;;5.82;4.45;;;;;;;;;;5017931;28;20035;-60
2023/03/19 14:06:39;;;;;;;4.40;4.00;;;;;;;;;;5035387;28;20033;-60
2023/03/19 14:09:06;;;;;;;6.45;4.20;;;;;;;;;;5035313;28;20079;-60
2023/03/19 14:11:34;;;;;;;5.90;4.03;;;;;;;;;;5035758;28;20112;-60
2023/03/19 14:14:04;;;;;;;4.47;4.07;;;;;;;;;;5034938;28;20116;-60
2023/03/19 14:16:34;;;;;;;4.25;3.65;;;;;;;;;;5035357;28;20072;-60
2023/03/19 14:19:00;;;;;;;4.53;4.13;;;;;;;;;;5035046;28;20368;-60
2023/03/19 14:21:34;;;;;;;5.68;4.25;;;;;;;;;;5034969;28;20105;-60
2023/03/19 14:24:18;;;;;;;4.03;3.42;;;;;;;;;;5034935;28;20467;-60
2023/03/19 14:26:43;;;;;;;5.20;4.03;;;;;;;;;;5035430;28;20033;-60
2023/03/19 14:29:14;;;;;;;5.97;4.80;;;;;;;;;;5035333;28;20041;-60
2023/03/19 14:31:42;;;;;;;6.78;5.05;;;;;;;;;;5035054;28;20418;-60
2023/03/19 14:34:10;;;;;;;9.15;6.10;;;;;;;;;;5033571;28;20044;-60
2023/03/19 14:36:55;;;;;;;8.10;5.75;;;;;;;;;;5035244;28;20071;-60
2023/03/19 14:39:23;;;;;;;10.77;7.32;;;;;;;;;;5024118;28;20438;-60
2023/03/19 14:41:50;;;;;;;8.15;6.20;;;;;;;;;;5016916;28;20113;-60
2023/03/19 14:44:29;;;;;;;8.27;6.05;;;;;;;;;;5016897;28;20558;-60
2023/03/19 14:47:13;;;;;;;8.27;5.78;;;;;;;;;;5035052;28;20464;-60